createdAt,value
2023-02-18T06:01:08.714Z,57.08
2023-02-18T06:03:37.777Z,57.21
2023-02-18T06:06:08.203Z,56.76
2023-02-18T06:08:36.995Z,56.82
2023-02-18T06:11:05.514Z,56.66
2023-02-18T06:13:47.875Z,56.65
2023-02-18T06:19:26.619Z,56.52
2023-02-18T06:21:56.879Z,56.34
2023-02-18T06:24:39.238Z,56.24
2023-02-18T06:27:08.727Z,56.13
2023-02-18T06:29:41.993Z,55.99
2023-02-18T06:32:24.895Z,55.93
2023-02-18T06:35:07.618Z,56.01
2023-02-18T06:37:36.111Z,56.01
2023-02-18T06:43:15.492Z,55.98
2023-02-18T06:45:43.883Z,55.88
2023-02-18T06:48:19.308Z,55.95
2023-02-18T06:51:02.071Z,56.07
2023-02-18T06:53:33.934Z,56.08
2023-02-18T06:56:03.081Z,56.23
2023-02-18T06:58:31.980Z,56.19
2023-02-18T07:01:00.936Z,56.56
2023-02-18T07:03:49.848Z,56.54
2023-02-18T07:06:19.174Z,56.63
2023-02-18T07:08:47.667Z,56.70
2023-02-18T07:11:30.147Z,57.01
2023-02-18T07:14:12.509Z,57.03
2023-02-18T07:16:43.766Z,56.92
2023-02-18T07:19:14.600Z,56.78
2023-02-18T07:21:58.728Z,56.92
2023-02-18T07:24:27.457Z,56.91
2023-02-18T07:26:56.168Z,56.91
2023-02-18T07:29:25.058Z,56.62
2023-02-18T07:31:54.848Z,56.46
2023-02-18T07:34:24.129Z,56.54
2023-02-18T07:42:51.314Z,55.49
2023-02-18T07:45:33.591Z,55.56
2023-02-18T07:48:17.440Z,55.67
2023-02-18T07:50:59.847Z,55.39
2023-02-18T07:53:43.694Z,55.18
2023-02-18T07:56:12.648Z,55.18
2023-02-18T07:58:41.348Z,55.20
2023-02-18T08:01:23.968Z,55.45
2023-02-18T08:06:51.034Z,55.38
2023-02-18T08:09:33.296Z,55.13
2023-02-18T08:12:15.750Z,54.57
2023-02-18T08:14:44.315Z,55.04
2023-02-18T08:17:26.672Z,54.98
2023-02-18T08:20:10.892Z,55.13
2023-02-18T08:22:53.093Z,54.89
2023-02-18T08:25:29.422Z,54.85
2023-02-18T08:28:00.034Z,54.37
2023-02-18T08:30:51.168Z,53.30
2023-02-18T08:33:21.542Z,53.54
2023-02-18T08:35:52.772Z,52.99
2023-02-18T08:38:23.279Z,52.16
2023-02-18T08:41:02.336Z,52.38
2023-02-18T08:43:31.316Z,52.83
2023-02-18T08:46:00.314Z,52.74
2023-02-18T08:48:42.727Z,52.25
2023-02-18T08:51:26.583Z,52.34
2023-02-18T08:53:55.084Z,52.98
2023-02-18T08:56:37.892Z,52.89
2023-02-18T08:59:06.582Z,53.04
2023-02-18T09:01:49.209Z,53.27
2023-02-18T09:04:18.810Z,53.74
2023-02-18T09:06:48.499Z,53.82
2023-02-18T09:09:31.095Z,54.15
2023-02-18T09:12:00.184Z,54.35
2023-02-18T09:14:29.624Z,54.57
2023-02-18T09:19:49.252Z,54.89
2023-02-18T09:22:19.015Z,55.24
2023-02-18T09:24:49.435Z,55.71
2023-02-18T09:27:33.336Z,56.46
2023-02-18T09:30:04.671Z,57.01
2023-02-18T09:32:35.164Z,57.67
2023-02-18T09:35:06.052Z,58.26
2023-02-18T09:43:48.131Z,60.97
2023-02-18T09:46:41.229Z,61.05
2023-02-18T09:52:33.629Z,61.88
2023-02-18T09:55:41.784Z,62.48
2023-02-18T09:58:19.275Z,60.56
2023-02-18T10:01:04.073Z,57.80
2023-02-18T10:03:47.549Z,58.46
2023-02-18T10:06:27.489Z,59.37
2023-02-18T10:09:33.680Z,60.68
2023-02-18T10:15:29.206Z,62.42
2023-02-18T10:18:22.538Z,61.23
2023-02-18T10:21:14.472Z,57.84
2023-02-18T10:24:04.814Z,59.23
2023-02-18T10:26:48.441Z,61.68
2023-02-18T10:29:21.833Z,62.71
2023-02-18T10:32:22.672Z,58.75
2023-02-18T10:38:18.019Z,60.72
2023-02-18T10:41:21.832Z,63.20
2023-02-18T10:44:28.394Z,63.29
2023-02-18T10:47:48.173Z,59.63
2023-02-18T10:50:37.533Z,57.93
2023-02-18T10:53:43.395Z,60.57
2023-02-18T10:56:49.970Z,62.76
2023-02-18T11:02:20.210Z,58.44
2023-02-18T11:04:49.550Z,58.31
2023-02-18T11:07:31.577Z,61.12
2023-02-18T11:10:15.392Z,63.29
2023-02-18T11:12:53.374Z,63.40
2023-02-18T11:15:26.559Z,58.37
2023-02-18T11:18:26.358Z,57.83
2023-02-18T11:21:02.280Z,60.43
2023-02-18T11:23:51.913Z,62.40
2023-02-18T11:26:40.847Z,63.99
2023-02-18T11:29:30.488Z,61.65
2023-02-18T11:32:01.472Z,58.34
2023-02-18T11:34:44.348Z,55.58
2023-02-18T11:37:26.787Z,57.52
2023-02-18T11:40:28.607Z,58.47
2023-02-18T11:43:19.569Z,60.72
2023-02-18T11:46:14.287Z,65.02
2023-02-18T11:48:43.796Z,66.89
2023-02-18T11:51:39.528Z,63.35
2023-02-18T11:54:32.861Z,55.83
2023-02-18T11:57:12.110Z,55.93
2023-02-18T11:59:42.923Z,56.94
2023-02-18T12:02:11.336Z,60.69
2023-02-18T12:05:15.285Z,62.75
2023-02-18T12:11:36.375Z,56.56
2023-02-18T12:14:23.655Z,56.45
2023-02-18T12:17:04.276Z,59.67
2023-02-18T12:20:29.422Z,63.53
2023-02-18T12:23:32.816Z,62.88
2023-02-18T12:26:40.776Z,57.58
2023-02-18T12:29:51.736Z,58.17
2023-02-18T12:32:45.541Z,63.09
2023-02-18T12:35:23.237Z,63.46
2023-02-18T12:45:20.223Z,58.38
2023-02-18T12:54:48.276Z,63.01
2023-02-18T12:57:34.554Z,55.62
2023-02-18T13:03:39.902Z,58.80
2023-02-18T13:06:43.469Z,61.88
2023-02-18T13:09:57.891Z,66.18
2023-02-18T13:16:18.041Z,58.28
2023-02-18T13:19:23.973Z,59.33
2023-02-18T13:21:59.294Z,62.05
2023-02-18T13:24:39.246Z,70.13
2023-02-18T13:27:39.272Z,64.90
2023-02-18T13:30:28.436Z,59.14
2023-02-18T13:37:21.440Z,63.59
2023-02-18T13:42:55.346Z,62.52
2023-02-18T13:51:17.521Z,59.86
2023-02-18T13:54:18.968Z,64.65
2023-02-18T13:57:00.268Z,63.05
2023-02-18T13:59:52.170Z,58.66
2023-02-18T14:02:21.330Z,62.02
2023-02-18T14:05:11.483Z,64.46
2023-02-18T14:08:15.757Z,61.61
2023-02-18T14:11:14.558Z,61.06
2023-02-18T14:14:15.766Z,60.14
2023-02-18T14:17:14.187Z,64.86
2023-02-18T14:20:02.361Z,60.86
2023-02-18T14:22:51.643Z,60.73
2023-02-18T14:25:42.598Z,61.34
2023-02-18T14:28:33.942Z,60.42
2023-02-18T14:34:43.408Z,60.74
2023-02-18T14:37:32.379Z,60.42
2023-02-18T14:40:29.121Z,62.05
2023-02-18T14:43:12.715Z,62.72
2023-02-18T14:46:15.665Z,62.53
2023-02-18T14:49:09.936Z,62.91
2023-02-18T14:51:43.643Z,63.77
2023-02-18T14:54:19.181Z,63.65
2023-02-18T14:57:22.893Z,62.89
2023-02-18T15:00:00.927Z,62.27
2023-02-18T15:02:34.167Z,61.99
2023-02-18T15:11:55.801Z,64.86
2023-02-18T15:14:42.884Z,66.41
2023-02-18T15:17:22.486Z,65.43
2023-02-18T15:20:09.230Z,64.20
2023-02-18T15:22:51.524Z,63.69
2023-02-18T15:25:34.994Z,63.28
2023-02-18T15:28:04.699Z,62.44
2023-02-18T15:30:34.796Z,62.54
2023-02-18T15:33:11.140Z,62.68
2023-02-18T15:36:05.714Z,62.75
2023-02-18T15:38:35.878Z,63.23
2023-02-18T15:41:05.832Z,63.04
2023-02-18T15:43:37.904Z,62.52
2023-02-18T15:46:15.176Z,62.43
2023-02-18T15:48:51.376Z,62.76
2023-02-18T15:54:32.105Z,63.42
2023-02-18T15:57:05.857Z,63.57
2023-02-18T15:59:43.200Z,64.19
2023-02-18T16:02:19.775Z,63.85
2023-02-18T16:05:05.279Z,64.38
2023-02-18T16:07:52.775Z,64.31
2023-02-18T16:10:41.091Z,63.42
2023-02-18T16:13:16.966Z,62.20
2023-02-18T16:15:49.916Z,62.47
2023-02-18T16:18:31.724Z,62.85
2023-02-18T16:24:29.195Z,60.67
2023-02-18T16:26:59.578Z,60.71
2023-02-18T16:29:40.639Z,61.21
2023-02-18T16:32:09.415Z,61.61
2023-02-18T16:34:38.539Z,62.12
2023-02-18T16:37:21.399Z,61.17
2023-02-18T16:39:54.969Z,58.57
2023-02-18T16:42:23.759Z,62.29
2023-02-18T16:44:52.644Z,61.81
2023-02-18T16:47:21.818Z,58.92
2023-02-18T16:50:04.496Z,62.60
2023-02-18T16:52:33.160Z,64.38
2023-02-18T16:55:01.821Z,62.30
2023-02-18T16:57:33.541Z,61.14
2023-02-18T17:00:03.097Z,61.00
2023-02-18T17:02:32.617Z,61.02
2023-02-18T17:05:01.289Z,60.28
2023-02-18T17:07:33.465Z,59.36
2023-02-18T17:13:23.461Z,64.00
2023-02-18T17:15:55.449Z,63.01
2023-02-18T17:18:25.990Z,62.85
2023-02-18T17:21:23.919Z,63.50
2023-02-18T17:23:53.323Z,63.18
2023-02-18T17:26:29.443Z,63.38
2023-02-18T17:29:01.093Z,61.76
2023-02-18T17:31:47.716Z,62.03
2023-02-18T17:34:32.796Z,62.13
2023-02-18T17:37:15.312Z,61.94
2023-02-18T17:39:44.321Z,62.40
2023-02-18T17:42:27.961Z,62.59
2023-02-18T17:44:58.636Z,62.86
2023-02-18T17:47:28.103Z,63.26
2023-02-18T17:49:57.323Z,64.03
2023-02-18T17:52:31.781Z,64.65
2023-02-18T17:55:31.745Z,65.90
2023-02-18T17:58:15.341Z,64.80
2023-02-18T18:00:51.949Z,64.00
2023-02-18T18:03:21.029Z,63.71
2023-02-18T18:05:57.229Z,64.27
2023-02-18T18:08:26.639Z,64.48
2023-02-18T18:11:16.996Z,64.55
2023-02-18T18:14:00.258Z,64.78
2023-02-18T18:16:42.771Z,64.50
2023-02-18T18:19:12.027Z,64.42
2023-02-18T18:21:41.250Z,64.23
2023-02-18T18:24:12.937Z,63.02
2023-02-18T18:26:41.598Z,62.57
2023-02-18T18:29:24.467Z,61.48
2023-02-18T18:31:53.103Z,61.34
2023-02-18T18:34:22.607Z,60.34
2023-02-18T18:39:47.444Z,63.00
2023-02-18T18:42:16.184Z,63.31
2023-02-18T18:44:45.191Z,61.20
2023-02-18T18:47:14.550Z,59.98
2023-02-18T18:49:57.105Z,59.72
2023-02-18T18:52:25.993Z,59.84
2023-02-18T18:54:54.846Z,59.83
2023-02-18T18:57:23.690Z,59.90
2023-02-18T18:59:52.873Z,60.00
2023-02-18T19:02:36.106Z,60.00
2023-02-18T19:05:05.646Z,59.93
2023-02-18T19:07:48.310Z,60.34
2023-02-18T19:10:41.822Z,61.66
2023-02-18T19:13:34.801Z,61.90
2023-02-18T19:18:55.254Z,62.99
2023-02-18T19:24:21.528Z,62.72
2023-02-18T19:26:52.489Z,62.60
2023-02-18T19:29:25.290Z,62.31
2023-02-18T19:34:44.221Z,63.65
2023-02-18T19:37:33.418Z,64.73
2023-02-18T19:40:26.642Z,65.08
2023-02-18T19:42:55.722Z,66.16
2023-02-18T19:45:25.228Z,66.63
2023-02-18T19:48:00.037Z,66.81
2023-02-18T19:50:33.268Z,66.74
2023-02-18T19:53:02.505Z,67.22
2023-02-18T19:55:31.570Z,66.77
2023-02-18T19:58:00.906Z,66.57
2023-02-18T20:00:33.607Z,66.52
2023-02-18T20:03:03.799Z,66.11
2023-02-18T20:05:46.273Z,65.40
2023-02-18T20:08:15.165Z,65.47
2023-02-18T20:10:45.500Z,65.28
2023-02-18T20:13:15.025Z,65.38
2023-02-18T20:15:45.540Z,65.12
2023-02-18T20:18:17.990Z,64.73
2023-02-18T20:20:51.543Z,64.57
2023-02-18T20:23:22.645Z,64.58
2023-02-18T20:25:53.177Z,64.18
2023-02-18T20:28:22.362Z,62.94
2023-02-18T20:30:51.712Z,62.36
2023-02-18T20:33:22.402Z,62.26
2023-02-18T20:35:59.771Z,62.16
2023-02-18T20:38:30.003Z,62.82
2023-02-18T20:41:15.889Z,62.21
2023-02-18T20:43:46.184Z,62.69
2023-02-18T20:46:23.737Z,62.63
2023-02-18T20:48:53.708Z,61.48
2023-02-18T20:51:25.129Z,60.46
2023-02-18T20:53:55.913Z,60.10
2023-02-18T20:56:28.675Z,59.18
2023-02-18T20:58:58.997Z,61.69
2023-02-18T21:01:30.532Z,64.15
2023-02-18T21:04:01.649Z,63.00
2023-02-18T21:06:33.397Z,61.53
2023-02-18T21:09:02.287Z,60.64
2023-02-18T21:11:31.445Z,60.75
2023-02-18T21:14:01.045Z,61.07
2023-02-18T21:16:32.845Z,60.36
2023-02-18T21:19:01.763Z,60.07
2023-02-18T21:21:30.728Z,59.72
2023-02-18T21:23:59.515Z,59.11
2023-02-18T21:26:29.444Z,62.71
2023-02-18T21:29:12.792Z,65.25
2023-02-18T21:31:55.380Z,62.46
2023-02-18T21:34:26.331Z,61.44
2023-02-18T21:36:55.422Z,59.52
2023-02-18T21:39:24.104Z,59.68
2023-02-18T21:41:52.781Z,63.12
2023-02-18T21:44:24.982Z,64.04
2023-02-18T21:46:59.091Z,63.05
2023-02-18T21:49:27.858Z,61.80
2023-02-18T21:51:57.165Z,61.01
2023-02-18T21:54:33.895Z,59.79
2023-02-18T21:57:05.188Z,58.55
2023-02-18T21:59:35.525Z,60.06
2023-02-18T22:02:07.257Z,64.66
2023-02-18T22:04:37.812Z,65.58
2023-02-18T22:07:06.534Z,63.05
2023-02-18T22:09:37.404Z,61.05
2023-02-18T22:12:06.567Z,57.67
2023-02-18T22:20:01.492Z,64.69
2023-02-18T22:22:30.026Z,63.06
2023-02-18T22:27:40.838Z,60.18
2023-02-18T22:30:10.597Z,58.14
2023-02-18T22:32:39.271Z,58.03
2023-02-18T22:35:08.702Z,63.15
2023-02-18T22:37:37.492Z,65.83
2023-02-18T22:40:06.721Z,63.46
2023-02-18T22:42:35.120Z,61.69
2023-02-18T22:45:17.503Z,59.89
2023-02-18T22:47:46.080Z,56.18
2023-02-18T22:50:15.472Z,57.22
2023-02-18T22:52:57.780Z,59.39
2023-02-18T22:55:26.458Z,67.06
2023-02-18T22:57:54.929Z,69.19
